createdAt,value
2019-04-27T00:02:26.530Z,18.60
2019-04-27T00:05:03.130Z,18.60
2019-04-27T00:07:38.777Z,18.50
2019-04-27T00:10:15.733Z,18.50
2019-04-27T00:12:45.061Z,18.40
2019-04-27T00:15:19.401Z,18.40
2019-04-27T00:18:09.371Z,18.40
2019-04-27T00:20:55.211Z,18.30
2019-04-27T00:23:25.258Z,18.30
2019-04-27T00:25:54.511Z,18.20
2019-04-27T00:28:23.998Z,18.20
2019-04-27T00:30:53.259Z,18.20
2019-04-27T00:33:23.779Z,18.10
2019-04-27T00:36:03.066Z,18.10
2019-04-27T00:38:40.685Z,18.10
2019-04-27T00:41:14.052Z,18.10
2019-04-27T00:43:44.552Z,18.00
2019-04-27T00:46:14.059Z,18.00
2019-04-27T00:48:43.561Z,18.00
2019-04-27T00:51:14.457Z,17.90
2019-04-27T00:53:43.957Z,17.90
2019-04-27T00:56:30.918Z,17.90
2019-04-27T00:59:17.961Z,17.80
2019-04-27T01:02:03.772Z,17.70
2019-04-27T01:04:34.036Z,17.70
2019-04-27T01:07:03.598Z,17.60
2019-04-27T01:09:33.871Z,17.50
2019-04-27T01:12:03.872Z,17.40
2019-04-27T01:14:34.304Z,17.40
2019-04-27T01:17:03.686Z,17.40
2019-04-27T01:19:32.981Z,17.40
2019-04-27T01:22:02.321Z,17.30
2019-04-27T01:24:31.676Z,17.30
2019-04-27T01:27:10.870Z,17.20
2019-04-27T01:29:41.449Z,17.20
2019-04-27T01:32:12.837Z,17.20
2019-04-27T01:34:42.105Z,17.10
2019-04-27T01:37:11.373Z,17.10
2019-04-27T01:39:40.634Z,17.00
2019-04-27T01:42:10.626Z,17.00
2019-04-27T01:44:40.073Z,17.00
2019-04-27T01:47:10.158Z,16.90
2019-04-27T01:49:39.807Z,16.80
2019-04-27T01:52:09.734Z,16.80
2019-04-27T01:54:40.954Z,16.80
2019-04-27T01:57:10.417Z,16.80
2019-04-27T01:59:40.003Z,16.80
2019-04-27T02:02:21.381Z,16.70
2019-04-27T02:05:16.089Z,16.70
2019-04-27T02:07:45.341Z,16.60
2019-04-27T02:10:15.907Z,16.60
2019-04-27T02:12:45.189Z,16.50
2019-04-27T02:15:14.653Z,16.50
2019-04-27T02:17:44.034Z,16.40
2019-04-27T02:20:13.563Z,16.40
2019-04-27T02:22:42.813Z,16.30
2019-04-27T02:25:12.145Z,16.30
2019-04-27T02:27:43.273Z,16.30
2019-04-27T02:30:44.062Z,16.30
2019-04-27T02:33:35.243Z,16.30
2019-04-27T02:36:04.631Z,16.30
2019-04-27T02:38:34.040Z,16.30
2019-04-27T02:41:05.455Z,16.30
2019-04-27T02:44:02.924Z,16.30
2019-04-27T02:46:32.500Z,16.20
2019-04-27T02:49:06.376Z,16.20
2019-04-27T02:51:44.904Z,16.20
2019-04-27T02:54:14.309Z,16.10
2019-04-27T02:56:43.589Z,16.10
2019-04-27T02:59:12.906Z,16.10
2019-04-27T03:01:53.416Z,16.20
2019-04-27T03:04:22.489Z,16.20
2019-04-27T03:06:51.744Z,16.10
2019-04-27T03:09:21.135Z,16.10
2019-04-27T03:11:50.462Z,16.10
2019-04-27T03:14:40.125Z,16.00
2019-04-27T03:17:27.450Z,15.90
2019-04-27T03:20:10.820Z,15.90
2019-04-27T03:22:49.758Z,15.80
2019-04-27T03:25:26.224Z,15.80
2019-04-27T03:27:57.325Z,15.80
2019-04-27T03:30:26.716Z,15.80
2019-04-27T03:32:57.563Z,15.80
2019-04-27T03:35:35.060Z,15.80
2019-04-27T03:38:00.599Z,15.80
2019-04-27T03:40:30.773Z,15.80
2019-04-27T03:43:03.894Z,15.90
2019-04-27T03:45:33.373Z,15.90
2019-04-27T03:48:03.145Z,15.90
2019-04-27T03:50:40.314Z,15.90
2019-04-27T03:53:26.384Z,15.80
2019-04-27T03:56:00.955Z,15.80
2019-04-27T03:58:39.325Z,15.80
2019-04-27T04:01:10.277Z,15.70
2019-04-27T04:03:39.362Z,15.70
2019-04-27T04:06:10.794Z,15.70
2019-04-27T04:08:40.066Z,15.70
2019-04-27T04:11:19.921Z,15.70
2019-04-27T04:13:54.071Z,15.70
2019-04-27T04:16:29.846Z,15.70
2019-04-27T04:19:00.965Z,15.70
2019-04-27T04:21:30.572Z,15.70
2019-04-27T04:24:01.156Z,15.80
2019-04-27T04:26:32.970Z,15.80
2019-04-27T04:29:01.529Z,15.80
2019-04-27T04:31:33.157Z,15.70
2019-04-27T04:34:01.806Z,15.70
2019-04-27T04:36:31.143Z,15.80
2019-04-27T04:39:00.729Z,15.70
2019-04-27T04:41:36.891Z,15.80
2019-04-27T04:44:31.146Z,15.70
2019-04-27T04:47:13.549Z,15.60
2019-04-27T04:49:43.026Z,15.60
2019-04-27T04:52:12.281Z,15.50
2019-04-27T04:54:41.930Z,15.40
2019-04-27T04:57:11.191Z,15.30
2019-04-27T04:59:43.651Z,15.20
2019-04-27T05:02:11.577Z,15.20
2019-04-27T05:04:40.959Z,15.20
2019-04-27T05:07:10.302Z,15.10
2019-04-27T05:09:39.635Z,15.10
2019-04-27T05:12:09.038Z,15.10
2019-04-27T05:14:38.897Z,15.10
2019-04-27T05:17:09.442Z,15.00
2019-04-27T05:19:39.025Z,15.00
2019-04-27T05:22:09.344Z,15.10
2019-04-27T05:24:39.342Z,15.00
2019-04-27T05:27:09.205Z,15.00
2019-04-27T05:29:39.057Z,15.00
2019-04-27T05:32:09.126Z,15.00
2019-04-27T05:34:39.474Z,15.10
2019-04-27T05:37:09.091Z,15.10
2019-04-27T05:39:38.955Z,15.10
2019-04-27T05:42:11.008Z,15.20
2019-04-27T05:45:10.589Z,15.20
2019-04-27T05:47:48.471Z,15.20
2019-04-27T05:50:18.403Z,15.20
2019-04-27T05:52:49.702Z,15.30
2019-04-27T05:55:19.645Z,15.30
2019-04-27T05:57:49.122Z,15.30
2019-04-27T06:00:20.546Z,15.20
2019-04-27T06:02:49.887Z,15.20
2019-04-27T06:05:19.215Z,15.20
2019-04-27T06:07:48.855Z,15.10
2019-04-27T06:10:19.850Z,15.10
2019-04-27T06:12:49.363Z,15.10
2019-04-27T06:15:19.852Z,15.00
2019-04-27T06:17:49.361Z,15.00
2019-04-27T06:20:18.929Z,14.90
2019-04-27T06:22:48.945Z,14.80
2019-04-27T06:25:21.483Z,14.80
2019-04-27T06:27:49.680Z,14.70
2019-04-27T06:30:19.305Z,14.70
2019-04-27T06:32:49.569Z,14.60
2019-04-27T06:35:18.949Z,14.70
2019-04-27T06:37:49.262Z,14.70
2019-04-27T06:40:18.814Z,14.70
2019-04-27T06:42:48.677Z,14.70
2019-04-27T06:45:19.689Z,14.70
2019-04-27T06:47:51.194Z,14.80
2019-04-27T06:50:20.177Z,14.80
2019-04-27T06:52:49.616Z,14.80
2019-04-27T06:55:19.129Z,14.80
2019-04-27T06:57:49.053Z,14.80
2019-04-27T07:00:18.986Z,14.90
2019-04-27T07:02:49.276Z,14.90
2019-04-27T07:05:20.319Z,14.90
2019-04-27T07:07:50.351Z,15.00
2019-04-27T07:10:19.689Z,15.00
2019-04-27T07:12:49.239Z,15.00
2019-04-27T07:15:20.429Z,15.00
2019-04-27T07:17:50.246Z,15.00
2019-04-27T07:20:19.502Z,15.00
2019-04-27T07:22:49.632Z,15.00
2019-04-27T07:25:19.182Z,15.00
2019-04-27T07:27:50.336Z,14.90
2019-04-27T07:30:19.766Z,14.90
2019-04-27T07:32:49.079Z,14.90
2019-04-27T07:35:23.580Z,14.90
2019-04-27T07:37:52.890Z,14.90
2019-04-27T07:40:23.983Z,14.90
2019-04-27T07:42:59.324Z,14.80
2019-04-27T07:45:33.195Z,14.80
2019-04-27T07:48:02.553Z,14.80
2019-04-27T07:50:31.817Z,14.80
2019-04-27T07:53:01.213Z,14.80
2019-04-27T07:55:30.574Z,14.80
2019-04-27T07:58:00.097Z,14.80
2019-04-27T08:00:29.471Z,14.70
2019-04-27T08:02:58.874Z,14.70
2019-04-27T08:05:29.186Z,14.70
2019-04-27T08:08:00.210Z,14.70
2019-04-27T08:10:33.001Z,14.60
2019-04-27T08:13:02.401Z,14.70
2019-04-27T08:15:36.344Z,14.70
2019-04-27T08:18:05.423Z,14.80
2019-04-27T08:20:35.005Z,14.80
2019-04-27T08:23:06.038Z,14.80
2019-04-27T08:25:35.376Z,14.80
2019-04-27T08:28:18.915Z,14.80
2019-04-27T08:31:04.885Z,14.80
2019-04-27T08:33:34.376Z,14.80
2019-04-27T08:36:03.742Z,14.70
2019-04-27T08:38:33.254Z,14.80
2019-04-27T08:41:02.611Z,14.80
2019-04-27T08:43:32.021Z,14.80
2019-04-27T08:46:01.438Z,14.70
2019-04-27T08:48:34.762Z,14.60
2019-04-27T08:51:01.789Z,14.50
2019-04-27T08:53:31.198Z,14.50
2019-04-27T08:56:00.667Z,14.50
2019-04-27T08:58:30.145Z,14.60
2019-04-27T09:00:59.465Z,14.50
2019-04-27T09:03:29.410Z,14.50
2019-04-27T09:05:59.130Z,14.50
2019-04-27T09:08:41.353Z,14.50
2019-04-27T09:11:22.704Z,14.40
2019-04-27T09:14:00.249Z,14.30
2019-04-27T09:16:59.493Z,14.40
2019-04-27T09:19:32.098Z,14.40
2019-04-27T09:22:16.146Z,14.40
2019-04-27T09:24:39.645Z,14.40
2019-04-27T09:27:09.620Z,14.50
2019-04-27T09:29:39.630Z,14.40
2019-04-27T09:32:09.043Z,14.30
2019-04-27T09:34:38.469Z,14.30
2019-04-27T09:37:07.830Z,14.20
2019-04-27T09:39:37.273Z,14.10
2019-04-27T09:42:06.693Z,14.10
2019-04-27T09:44:37.127Z,14.10
2019-04-27T09:47:06.637Z,14.00
2019-04-27T09:49:36.691Z,14.00
2019-04-27T09:52:06.922Z,14.00
2019-04-27T09:54:36.689Z,13.80
2019-04-27T09:57:06.962Z,13.80
2019-04-27T09:59:39.441Z,13.70
2019-04-27T10:02:08.574Z,13.70
2019-04-27T10:04:38.243Z,13.70
2019-04-27T10:07:07.578Z,13.70
2019-04-27T10:09:36.991Z,13.70
2019-04-27T10:12:07.399Z,13.80
2019-04-27T10:14:37.121Z,13.90
2019-04-27T10:17:06.449Z,13.90
2019-04-27T10:19:36.558Z,13.90
2019-04-27T10:22:06.609Z,14.00
2019-04-27T10:24:35.998Z,14.00
2019-04-27T10:27:07.992Z,14.00
2019-04-27T10:29:37.431Z,14.00
2019-04-27T10:32:06.765Z,14.00
2019-04-27T10:34:36.141Z,14.00
2019-04-27T10:37:06.029Z,14.00
2019-04-27T10:39:36.101Z,14.00
2019-04-27T10:42:06.714Z,14.10
2019-04-27T10:44:36.403Z,14.00
2019-04-27T10:47:06.013Z,14.10
2019-04-27T10:49:35.866Z,14.10
2019-04-27T10:52:05.999Z,14.00
2019-04-27T10:54:35.430Z,14.00
2019-04-27T10:57:06.081Z,13.90
2019-04-27T10:59:36.147Z,13.90
2019-04-27T11:02:05.705Z,13.90
2019-04-27T11:04:46.226Z,14.00
2019-04-27T11:07:17.478Z,14.00
2019-04-27T11:09:46.985Z,14.00
2019-04-27T11:12:16.418Z,14.10
2019-04-27T11:14:45.677Z,14.10
2019-04-27T11:17:16.404Z,14.00
2019-04-27T11:19:46.072Z,13.90
2019-04-27T11:22:15.880Z,13.80
2019-04-27T11:24:45.843Z,13.70
2019-04-27T11:27:16.733Z,13.70
2019-04-27T11:29:46.283Z,13.70
2019-04-27T11:32:16.129Z,13.60
2019-04-27T11:35:12.390Z,13.60
2019-04-27T11:37:41.655Z,13.50
2019-04-27T11:40:11.930Z,13.50
2019-04-27T11:42:41.217Z,13.60
2019-04-27T11:45:10.805Z,13.70
2019-04-27T11:47:40.136Z,13.80
2019-04-27T11:50:09.631Z,14.00
2019-04-27T11:52:39.010Z,14.00
2019-04-27T11:55:09.444Z,14.00
2019-04-27T11:57:38.715Z,14.10
2019-04-27T12:00:09.585Z,14.20
2019-04-27T12:02:38.846Z,14.40
2019-04-27T12:05:08.370Z,14.50
2019-04-27T12:07:37.637Z,14.70
2019-04-27T12:10:07.420Z,14.80
2019-04-27T12:12:36.683Z,14.90
2019-04-27T12:15:06.393Z,14.70
2019-04-27T12:17:36.021Z,14.50
2019-04-27T12:20:06.061Z,14.40
2019-04-27T12:22:35.385Z,14.30
2019-04-27T12:25:06.477Z,14.20
2019-04-27T12:28:03.766Z,14.20
2019-04-27T12:31:08.759Z,14.30
2019-04-27T12:33:38.259Z,14.40
2019-04-27T12:36:08.208Z,14.60
2019-04-27T12:38:37.499Z,14.60
2019-04-27T12:41:06.903Z,14.40
2019-04-27T12:43:37.492Z,14.30
2019-04-27T12:46:07.165Z,14.20
2019-04-27T12:48:37.502Z,14.20
2019-04-27T12:51:06.897Z,14.20
2019-04-27T12:53:52.636Z,14.30
2019-04-27T12:56:45.632Z,14.30
2019-04-27T12:59:36.702Z,14.40
2019-04-27T13:02:06.611Z,14.60
2019-04-27T13:04:36.491Z,14.70
2019-04-27T13:07:07.034Z,14.80
2019-04-27T13:09:36.606Z,14.80
2019-04-27T13:12:05.934Z,15.00
2019-04-27T13:14:36.514Z,15.20
2019-04-27T13:17:06.347Z,15.40
2019-04-27T13:19:36.520Z,15.60
2019-04-27T13:22:06.272Z,15.60
2019-04-27T13:24:35.823Z,15.60
2019-04-27T13:27:06.463Z,15.50
2019-04-27T13:29:35.870Z,15.40
2019-04-27T13:32:05.998Z,15.20
2019-04-27T13:34:36.344Z,15.10
2019-04-27T13:37:26.256Z,15.00
2019-04-27T13:40:06.077Z,15.00
2019-04-27T13:42:28.726Z,14.90
2019-04-27T13:44:59.238Z,14.80
2019-04-27T13:47:42.505Z,14.70
2019-04-27T13:50:25.618Z,14.70
2019-04-27T13:52:56.884Z,14.60
2019-04-27T13:55:25.958Z,14.60
2019-04-27T13:57:55.222Z,14.50
2019-04-27T14:00:24.977Z,14.40
2019-04-27T14:02:54.321Z,14.40
2019-04-27T14:05:23.613Z,14.40
2019-04-27T14:07:52.920Z,14.40
2019-04-27T14:10:22.170Z,14.40
2019-04-27T14:12:51.454Z,14.40
2019-04-27T14:15:20.779Z,14.40
2019-04-27T14:17:50.143Z,14.40
2019-04-27T14:20:19.444Z,14.60
2019-04-27T14:22:48.961Z,14.80
2019-04-27T14:25:18.346Z,15.00
2019-04-27T14:27:48.894Z,15.00
2019-04-27T14:30:18.707Z,15.10
2019-04-27T14:32:47.979Z,15.10
2019-04-27T14:35:18.130Z,15.10
2019-04-27T14:37:49.738Z,15.10
2019-04-27T14:40:18.624Z,15.30
2019-04-27T14:42:48.438Z,15.40
2019-04-27T14:45:18.978Z,15.50
2019-04-27T14:47:48.246Z,15.40
2019-04-27T14:50:18.796Z,15.50
2019-04-27T14:52:48.679Z,15.30
2019-04-27T14:55:18.025Z,15.20
2019-04-27T14:57:47.373Z,15.10
2019-04-27T15:00:19.200Z,15.10
2019-04-27T15:02:49.071Z,15.10
2019-04-27T15:05:18.535Z,15.10
2019-04-27T15:07:47.873Z,15.00
2019-04-27T15:10:17.399Z,15.00
2019-04-27T15:12:46.749Z,15.00
2019-04-27T15:15:16.366Z,15.00
2019-04-27T15:17:45.697Z,15.10
2019-04-27T15:20:22.625Z,15.20
2019-04-27T15:22:56.990Z,15.20
2019-04-27T15:25:23.730Z,15.20
2019-04-27T15:27:56.925Z,15.20
2019-04-27T15:30:39.593Z,15.10
2019-04-27T15:33:46.787Z,14.90
2019-04-27T15:36:25.986Z,14.90
2019-04-27T15:38:58.510Z,14.80
2019-04-27T15:41:36.456Z,14.70
2019-04-27T15:44:06.954Z,14.60
2019-04-27T15:46:38.967Z,14.50
2019-04-27T15:49:11.346Z,14.30
2019-04-27T15:51:38.901Z,14.30
2019-04-27T15:54:08.167Z,14.30
2019-04-27T15:56:37.474Z,14.40
2019-04-27T15:59:08.156Z,14.50
2019-04-27T16:01:39.566Z,14.50
2019-04-27T16:04:11.112Z,14.50
2019-04-27T16:06:42.831Z,14.50
2019-04-27T16:09:16.169Z,14.50
2019-04-27T16:11:50.033Z,14.60
2019-04-27T16:14:16.027Z,14.50
2019-04-27T16:16:45.306Z,14.50
2019-04-27T16:19:14.625Z,14.50
2019-04-27T16:21:47.799Z,14.40
2019-04-27T16:24:17.014Z,14.40
2019-04-27T16:26:46.289Z,14.40
2019-04-27T16:29:18.541Z,14.40
2019-04-27T16:31:48.189Z,14.40
2019-04-27T16:34:18.471Z,14.30
2019-04-27T16:36:47.965Z,14.30
2019-04-27T16:39:18.094Z,14.30
2019-04-27T16:41:50.048Z,14.30
2019-04-27T16:44:19.287Z,14.30
2019-04-27T16:46:48.902Z,14.20
2019-04-27T16:49:18.802Z,14.20
2019-04-27T16:51:49.251Z,14.20
2019-04-27T16:54:21.271Z,14.20
2019-04-27T16:56:55.442Z,14.10
2019-04-27T16:59:39.248Z,14.20
2019-04-27T17:01:52.009Z,14.20
2019-04-27T17:04:21.318Z,14.10
2019-04-27T17:06:50.657Z,14.10
2019-04-27T17:09:20.001Z,14.10
2019-04-27T17:11:51.792Z,14.10
2019-04-27T17:14:36.457Z,14.10
2019-04-27T17:17:22.820Z,14.10
2019-04-27T17:19:55.588Z,14.00
2019-04-27T17:22:25.042Z,13.90
2019-04-27T17:24:54.440Z,13.90
2019-04-27T17:27:34.909Z,13.90
2019-04-27T17:30:04.862Z,13.80
2019-04-27T17:32:53.151Z,13.80
2019-04-27T17:35:22.597Z,13.80
2019-04-27T17:37:54.232Z,13.80
2019-04-27T17:40:22.910Z,13.80
2019-04-27T17:42:52.220Z,13.80
2019-04-27T17:45:21.721Z,13.80
2019-04-27T17:47:51.155Z,13.80
2019-04-27T17:50:25.011Z,13.80
2019-04-27T17:52:54.768Z,13.80
2019-04-27T17:55:24.547Z,13.80
2019-04-27T17:57:53.570Z,13.80
2019-04-27T18:00:23.074Z,13.70
2019-04-27T18:02:52.395Z,13.70
2019-04-27T18:05:21.670Z,13.70
2019-04-27T18:07:51.013Z,13.70
2019-04-27T18:10:23.997Z,13.60
2019-04-27T18:12:51.694Z,13.60
2019-04-27T18:15:20.955Z,13.60
2019-04-27T18:17:52.425Z,13.60
2019-04-27T18:20:24.013Z,13.60
2019-04-27T18:22:58.989Z,13.60
2019-04-27T18:25:28.986Z,13.60
2019-04-27T18:28:08.002Z,13.60
2019-04-27T18:31:15.629Z,13.60
2019-04-27T18:33:42.547Z,13.60
2019-04-27T18:36:14.370Z,13.60
2019-04-27T18:38:42.981Z,13.60
2019-04-27T18:41:12.262Z,13.60
2019-04-27T18:43:46.467Z,13.50
2019-04-27T18:46:14.856Z,13.60
2019-04-27T18:49:05.741Z,13.60
2019-04-27T18:51:57.853Z,13.60
2019-04-27T18:54:25.773Z,13.50
2019-04-27T18:57:02.168Z,13.50
2019-04-27T18:59:26.041Z,13.50
2019-04-27T19:01:55.323Z,13.60
2019-04-27T19:04:24.578Z,13.60
2019-04-27T19:06:53.902Z,13.60
2019-04-27T19:09:23.787Z,13.60
2019-04-27T19:11:56.598Z,13.60
2019-04-27T19:14:24.621Z,13.60
2019-04-27T19:16:54.026Z,13.60
2019-04-27T19:19:23.365Z,13.60
2019-04-27T19:21:52.626Z,13.60
2019-04-27T19:24:21.899Z,13.60
2019-04-27T19:26:59.889Z,13.60
2019-04-27T19:29:32.787Z,13.60
2019-04-27T19:32:03.022Z,13.60
2019-04-27T19:34:32.466Z,13.50
2019-04-27T19:37:01.842Z,13.50
2019-04-27T19:39:31.106Z,13.50
2019-04-27T19:42:03.593Z,13.50
2019-04-27T19:44:31.409Z,13.50
2019-04-27T19:47:00.711Z,13.60
2019-04-27T19:49:31.762Z,13.50
2019-04-27T19:52:01.082Z,13.50
2019-04-27T19:54:30.423Z,13.50
2019-04-27T19:56:59.760Z,13.50
2019-04-27T19:59:38.106Z,13.50
2019-04-27T20:02:12.076Z,13.60
2019-04-27T20:04:43.365Z,13.50
2019-04-27T20:07:12.742Z,13.40
2019-04-27T20:09:59.310Z,13.40
2019-04-27T20:12:28.663Z,13.40
2019-04-27T20:14:58.203Z,13.30
2019-04-27T20:17:30.913Z,13.40
2019-04-27T20:20:00.545Z,13.30
2019-04-27T20:22:29.957Z,13.30
2019-04-27T20:25:01.496Z,13.30
2019-04-27T20:27:34.843Z,13.30
2019-04-27T20:30:03.078Z,13.20
2019-04-27T20:32:32.806Z,13.20
2019-04-27T20:35:02.219Z,13.20
2019-04-27T20:37:31.545Z,13.20
2019-04-27T20:40:01.731Z,13.20
2019-04-27T20:42:31.607Z,13.10
2019-04-27T20:45:01.891Z,13.20
2019-04-27T20:47:32.191Z,13.20
2019-04-27T20:50:01.813Z,13.10
2019-04-27T20:52:59.046Z,13.10
2019-04-27T20:55:28.697Z,13.00
2019-04-27T20:58:02.305Z,13.00
2019-04-27T21:00:32.041Z,13.00
2019-04-27T21:03:19.962Z,13.10
2019-04-27T21:06:13.178Z,13.00
2019-04-27T21:08:43.198Z,13.10
2019-04-27T21:11:12.469Z,13.10
2019-04-27T21:13:41.747Z,13.10
2019-04-27T21:16:12.597Z,13.10
2019-04-27T21:18:42.894Z,13.10
2019-04-27T21:21:12.177Z,13.10
2019-04-27T21:23:41.642Z,13.10
2019-04-27T21:26:10.989Z,13.10
2019-04-27T21:28:42.943Z,13.10
2019-04-27T21:31:12.775Z,13.10
2019-04-27T21:33:42.283Z,13.10
2019-04-27T21:36:11.827Z,13.10
2019-04-27T21:38:42.986Z,13.10
2019-04-27T21:41:12.557Z,13.00
2019-04-27T21:43:43.703Z,13.00
2019-04-27T21:46:12.990Z,13.00
2019-04-27T21:48:42.301Z,13.00
2019-04-27T21:51:11.905Z,12.90
2019-04-27T21:54:06.046Z,12.90
2019-04-27T21:56:35.322Z,12.90
2019-04-27T21:59:04.602Z,12.90
2019-04-27T22:01:35.115Z,12.80
2019-04-27T22:04:05.005Z,12.80
2019-04-27T22:06:34.422Z,12.80
2019-04-27T22:09:07.118Z,12.70
2019-04-27T22:11:36.633Z,12.80
2019-04-27T22:14:06.171Z,12.80
2019-04-27T22:16:35.573Z,12.70
2019-04-27T22:19:05.768Z,12.70
2019-04-27T22:21:35.293Z,12.70
2019-04-27T22:24:33.006Z,12.70
2019-04-27T22:27:02.269Z,12.70
2019-04-27T22:29:32.120Z,12.60
2019-04-27T22:32:01.768Z,12.60
2019-04-27T22:34:31.325Z,12.60
2019-04-27T22:37:02.646Z,12.60
2019-04-27T22:39:38.230Z,12.60
2019-04-27T22:42:25.001Z,12.60
2019-04-27T22:44:58.293Z,12.60
2019-04-27T22:47:27.546Z,12.50
2019-04-27T22:49:56.870Z,12.50
2019-04-27T22:52:26.153Z,12.50
2019-04-27T22:54:55.438Z,12.50
2019-04-27T22:57:37.129Z,12.50
2019-04-27T23:00:24.797Z,12.50
2019-04-27T23:02:57.809Z,12.50
2019-04-27T23:05:27.070Z,12.50
2019-04-27T23:07:56.341Z,12.40
2019-04-27T23:10:25.605Z,12.40
2019-04-27T23:12:54.915Z,12.50
2019-04-27T23:15:26.614Z,12.40
2019-04-27T23:17:57.011Z,12.50
2019-04-27T23:20:26.282Z,12.60
2019-04-27T23:22:55.569Z,12.50
2019-04-27T23:25:24.901Z,12.50
2019-04-27T23:27:54.157Z,12.50
2019-04-27T23:30:31.244Z,12.60
2019-04-27T23:33:01.256Z,12.60
2019-04-27T23:35:32.844Z,12.50
2019-04-27T23:38:14.458Z,12.50
2019-04-27T23:40:32.666Z,12.50
2019-04-27T23:43:02.038Z,12.40
2019-04-27T23:45:31.864Z,12.40
2019-04-27T23:48:01.273Z,12.40
2019-04-27T23:50:32.101Z,12.40
2019-04-27T23:53:13.307Z,12.30
2019-04-27T23:55:42.565Z,12.30
2019-04-27T23:58:11.906Z,12.30
